sensor_id;sensor_type;location;lat;lon;timestamp;temperature;humidity
68109;SHT30;54893;49.864;19.084;2022-12-15T00:00:49;-4.01;96.98
68109;SHT30;54893;49.864;19.084;2022-12-15T00:06:08;-3.96;97.01
68109;SHT30;54893;49.864;19.084;2022-12-15T00:11:27;-3.89;96.80
68109;SHT30;54893;49.864;19.084;2022-12-15T00:16:46;-3.77;97.23
68109;SHT30;54893;49.864;19.084;2022-12-15T00:22:05;-3.74;97.77
68109;SHT30;54893;49.864;19.084;2022-12-15T00:27:23;-3.68;97.55
68109;SHT30;54893;49.864;19.084;2022-12-15T00:32:42;-3.52;98.15
68109;SHT30;54893;49.864;19.084;2022-12-15T00:38:07;-3.37;97.06
68109;SHT30;54893;49.864;19.084;2022-12-15T03:47:03;-2.11;98.31
68109;SHT30;54893;49.864;19.084;2022-12-15T03:52:05;-2.11;98.44
68109;SHT30;54893;49.864;19.084;2022-12-15T03:57:05;-2.12;98.27
68109;SHT30;54893;49.864;19.084;2022-12-15T04:02:08;-2.12;98.29
68109;SHT30;54893;49.864;19.084;2022-12-15T04:07:11;-2.14;98.53
68109;SHT30;54893;49.864;19.084;2022-12-15T04:12:11;-2.17;98.60
68109;SHT30;54893;49.864;19.084;2022-12-15T04:17:12;-2.15;98.64
68109;SHT30;54893;49.864;19.084;2022-12-15T04:22:12;-2.15;98.59
68109;SHT30;54893;49.864;19.084;2022-12-15T04:27:12;-2.15;98.66
68109;SHT30;54893;49.864;19.084;2022-12-15T04:32:31;-2.17;98.71
68109;SHT30;54893;49.864;19.084;2022-12-15T04:37:50;-2.14;98.68
68109;SHT30;54893;49.864;19.084;2022-12-15T04:43:09;-2.12;98.79
68109;SHT30;54893;49.864;19.084;2022-12-15T04:48:28;-2.09;98.85
68109;SHT30;54893;49.864;19.084;2022-12-15T04:53:47;-2.11;98.78
68109;SHT30;54893;49.864;19.084;2022-12-15T04:59:06;-2.05;98.63
68109;SHT30;54893;49.864;19.084;2022-12-15T05:04:25;-2.01;98.68
68109;SHT30;54893;49.864;19.084;2022-12-15T05:09:44;-1.99;98.71
68109;SHT30;54893;49.864;19.084;2022-12-15T05:15:03;-1.98;98.71
68109;SHT30;54893;49.864;19.084;2022-12-15T05:20:22;-1.95;98.90
68109;SHT30;54893;49.864;19.084;2022-12-15T05:25:41;-1.97;99.06
68109;SHT30;54893;49.864;19.084;2022-12-15T05:31:00;-1.93;99.09
68109;SHT30;54893;49.864;19.084;2022-12-15T05:36:20;-1.93;99.38
68109;SHT30;54893;49.864;19.084;2022-12-15T05:41:21;-1.87;99.24
68109;SHT30;54893;49.864;19.084;2022-12-15T05:46:21;-1.85;99.10
68109;SHT30;54893;49.864;19.084;2022-12-15T05:51:21;-1.83;99.10
68109;SHT30;54893;49.864;19.084;2022-12-15T05:56:24;-1.83;99.29
68109;SHT30;54893;49.864;19.084;2022-12-15T06:01:26;-1.84;99.37
68109;SHT30;54893;49.864;19.084;2022-12-15T06:06:26;-1.80;99.38
68109;SHT30;54893;49.864;19.084;2022-12-15T06:11:27;-1.75;99.48
68109;SHT30;54893;49.864;19.084;2022-12-15T06:16:28;-1.73;99.33
68109;SHT30;54893;49.864;19.084;2022-12-15T06:21:31;-1.67;99.11
68109;SHT30;54893;49.864;19.084;2022-12-15T06:26:33;-1.75;99.15
68109;SHT30;54893;49.864;19.084;2022-12-15T06:31:35;-1.81;99.21
68109;SHT30;54893;49.864;19.084;2022-12-15T06:36:37;-1.91;99.50
68109;SHT30;54893;49.864;19.084;2022-12-15T06:41:38;-1.95;99.71
68109;SHT30;54893;49.864;19.084;2022-12-15T06:46:38;-1.95;99.78
68109;SHT30;54893;49.864;19.084;2022-12-15T06:51:39;-1.95;99.87
68109;SHT30;54893;49.864;19.084;2022-12-15T06:56:40;-1.94;99.83
68109;SHT30;54893;49.864;19.084;2022-12-15T07:01:41;-1.88;99.81
68109;SHT30;54893;49.864;19.084;2022-12-15T07:06:41;-1.84;99.68
68109;SHT30;54893;49.864;19.084;2022-12-15T07:11:42;-1.87;99.71
68109;SHT30;54893;49.864;19.084;2022-12-15T07:16:43;-1.84;99.80
68109;SHT30;54893;49.864;19.084;2022-12-15T07:21:44;-1.77;99.66
68109;SHT30;54893;49.864;19.084;2022-12-15T07:26:45;-1.73;99.57
68109;SHT30;54893;49.864;19.084;2022-12-15T07:31:45;-1.83;99.84
68109;SHT30;54893;49.864;19.084;2022-12-15T07:36:46;-1.90;99.98
68109;SHT30;54893;49.864;19.084;2022-12-15T07:41:46;-1.85;99.74
68109;SHT30;54893;49.864;19.084;2022-12-15T07:46:46;-1.85;99.67
68109;SHT30;54893;49.864;19.084;2022-12-15T07:51:48;-2.08;98.98
68109;SHT30;54893;49.864;19.084;2022-12-15T07:56:48;-2.09;99.15
68109;SHT30;54893;49.864;19.084;2022-12-15T08:01:49;-2.02;99.26
68109;SHT30;54893;49.864;19.084;2022-12-15T08:06:49;-2.07;98.89
68109;SHT30;54893;49.864;19.084;2022-12-15T08:11:50;-2.19;98.50
68109;SHT30;54893;49.864;19.084;2022-12-15T08:16:51;-2.31;97.62
68109;SHT30;54893;49.864;19.084;2022-12-15T08:21:51;-2.17;98.55
68109;SHT30;54893;49.864;19.084;2022-12-15T08:26:51;-2.17;98.57
68109;SHT30;54893;49.864;19.084;2022-12-15T08:31:52;-2.17;98.59
68109;SHT30;54893;49.864;19.084;2022-12-15T08:36:53;-2.07;98.39
68109;SHT30;54893;49.864;19.084;2022-12-15T08:41:54;-2.19;97.76
68109;SHT30;54893;49.864;19.084;2022-12-15T08:46:54;-2.38;98.25
68109;SHT30;54893;49.864;19.084;2022-12-15T08:51:55;-2.34;98.69
68109;SHT30;54893;49.864;19.084;2022-12-15T08:56:55;-2.31;98.63
68109;SHT30;54893;49.864;19.084;2022-12-15T09:01:55;-2.28;98.61
68109;SHT30;54893;49.864;19.084;2022-12-15T09:06:56;-2.41;98.85
68109;SHT30;54893;49.864;19.084;2022-12-15T09:11:56;-2.15;98.77
68109;SHT30;54893;49.864;19.084;2022-12-15T09:16:57;-2.09;98.64
68109;SHT30;54893;49.864;19.084;2022-12-15T09:21:57;-2.01;98.42
68109;SHT30;54893;49.864;19.084;2022-12-15T09:26:58;-2.12;97.94
68109;SHT30;54893;49.864;19.084;2022-12-15T09:31:59;-1.98;98.28
68109;SHT30;54893;49.864;19.084;2022-12-15T09:36:59;-1.99;98.27
68109;SHT30;54893;49.864;19.084;2022-12-15T09:42:00;-1.84;98.06
68109;SHT30;54893;49.864;19.084;2022-12-15T09:47:50;-1.90;98.53
68109;SHT30;54893;49.864;19.084;2022-12-15T09:52:55;-1.88;98.59
68109;SHT30;54893;49.864;19.084;2022-12-15T09:58:04;-1.87;98.52
68109;SHT30;54893;49.864;19.084;2022-12-15T10:03:22;-2.11;97.94
68109;SHT30;54893;49.864;19.084;2022-12-15T10:08:28;-1.94;98.24
68109;SHT30;54893;49.864;19.084;2022-12-15T10:19:19;-1.83;97.76
68109;SHT30;54893;49.864;19.084;2022-12-15T10:24:22;-1.77;96.35
68109;SHT30;54893;49.864;19.084;2022-12-15T10:29:43;-1.50;96.56
68109;SHT30;54893;49.864;19.084;2022-12-15T10:34:44;-1.16;95.91
68109;SHT30;54893;49.864;19.084;2022-12-15T10:39:48;-1.06;95.16
68109;SHT30;54893;49.864;19.084;2022-12-15T10:44:51;-0.86;94.89
68109;SHT30;54893;49.864;19.084;2022-12-15T10:49:54;-1.00;94.89
68109;SHT30;54893;49.864;19.084;2022-12-15T10:54:55;-1.17;94.82
68109;SHT30;54893;49.864;19.084;2022-12-15T11:05:15;-1.21;97.40
68109;SHT30;54893;49.864;19.084;2022-12-15T11:10:27;-1.29;96.62
68109;SHT30;54893;49.864;19.084;2022-12-15T11:15:49;-1.44;97.28
68109;SHT30;54893;49.864;19.084;2022-12-15T11:26:00;-1.37;96.92
68109;SHT30;54893;49.864;19.084;2022-12-15T11:31:19;-0.96;95.86
68109;SHT30;54893;49.864;19.084;2022-12-15T11:47:51;-0.86;94.32
68109;SHT30;54893;49.864;19.084;2022-12-15T12:03:24;-1.60;96.14
68109;SHT30;54893;49.864;19.084;2022-12-15T12:13:44;-1.42;96.56
68109;SHT30;54893;49.864;19.084;2022-12-15T12:19:17;-1.43;97.04
68109;SHT30;54893;49.864;19.084;2022-12-15T12:29:43;-1.20;95.59
68109;SHT30;54893;49.864;19.084;2022-12-15T12:41:06;-1.02;95.00
68109;SHT30;54893;49.864;19.084;2022-12-15T12:51:26;-0.99;95.19
68109;SHT30;54893;49.864;19.084;2022-12-15T12:57:03;-1.00;95.26
68109;SHT30;54893;49.864;19.084;2022-12-15T13:07:32;-1.29;95.54
68109;SHT30;54893;49.864;19.084;2022-12-15T13:12:46;-1.02;95.83
68109;SHT30;54893;49.864;19.084;2022-12-15T13:17:50;-0.93;95.52
68109;SHT30;54893;49.864;19.084;2022-12-15T13:22:52;-1.05;95.41
68109;SHT30;54893;49.864;19.084;2022-12-15T13:27:56;-1.15;96.01
68109;SHT30;54893;49.864;19.084;2022-12-15T13:33:16;-1.27;96.31
68109;SHT30;54893;49.864;19.084;2022-12-15T13:38:18;-1.29;96.24
68109;SHT30;54893;49.864;19.084;2022-12-15T13:48:45;-1.53;96.95
68109;SHT30;54893;49.864;19.084;2022-12-15T13:54:17;-1.71;97.66
68109;SHT30;54893;49.864;19.084;2022-12-15T13:59:46;-1.70;97.75
68109;SHT30;54893;49.864;19.084;2022-12-15T14:05:11;-1.75;98.04
68109;SHT30;54893;49.864;19.084;2022-12-15T14:15:27;-1.77;98.44
68109;SHT30;54893;49.864;19.084;2022-12-15T14:20:31;-1.83;98.73
68109;SHT30;54893;49.864;19.084;2022-12-15T14:25:37;-1.91;98.85
68109;SHT30;54893;49.864;19.084;2022-12-15T14:30:38;-1.99;99.47
68109;SHT30;54893;49.864;19.084;2022-12-15T14:35:43;-1.99;99.61
68109;SHT30;54893;49.864;19.084;2022-12-15T14:40:45;-1.98;99.53
68109;SHT30;54893;49.864;19.084;2022-12-15T14:45:50;-2.01;99.40
68109;SHT30;54893;49.864;19.084;2022-12-15T14:50:53;-1.99;99.50
68109;SHT30;54893;49.864;19.084;2022-12-15T14:55:53;-2.02;99.51
68109;SHT30;54893;49.864;19.084;2022-12-15T15:00:55;-2.07;99.60
68109;SHT30;54893;49.864;19.084;2022-12-15T15:05:59;-2.07;99.60
68109;SHT30;54893;49.864;19.084;2022-12-15T15:11:21;-2.11;99.64
68109;SHT30;54893;49.864;19.084;2022-12-15T15:16:22;-2.12;99.74
68109;SHT30;54893;49.864;19.084;2022-12-15T15:21:27;-2.12;99.69
68109;SHT30;54893;49.864;19.084;2022-12-15T15:26:29;-2.12;99.50
68109;SHT30;54893;49.864;19.084;2022-12-15T15:31:35;-2.15;99.53
68109;SHT30;54893;49.864;19.084;2022-12-15T15:36:37;-2.17;99.43
68109;SHT30;54893;49.864;19.084;2022-12-15T15:41:38;-2.28;99.99
68109;SHT30;54893;49.864;19.084;2022-12-15T15:46:44;-2.21;99.99
68109;SHT30;54893;49.864;19.084;2022-12-15T15:51:45;-2.19;99.94
68109;SHT30;54893;49.864;19.084;2022-12-15T15:56:46;-2.21;99.99
68109;SHT30;54893;49.864;19.084;2022-12-15T16:01:51;-2.24;99.99
68109;SHT30;54893;49.864;19.084;2022-12-15T16:06:53;-2.22;99.99
68109;SHT30;54893;49.864;19.084;2022-12-15T16:11:54;-2.19;99.82
68109;SHT30;54893;49.864;19.084;2022-12-15T16:16:54;-2.24;99.79
68109;SHT30;54893;49.864;19.084;2022-12-15T16:21:55;-2.22;99.59
68109;SHT30;54893;49.864;19.084;2022-12-15T16:26:55;-2.19;99.39
68109;SHT30;54893;49.864;19.084;2022-12-15T16:31:56;-2.19;99.36
68109;SHT30;54893;49.864;19.084;2022-12-15T16:36:56;-2.21;99.26
68109;SHT30;54893;49.864;19.084;2022-12-15T16:41:57;-2.22;98.90
68109;SHT30;54893;49.864;19.084;2022-12-15T16:46:57;-2.21;99.19
68109;SHT30;54893;49.864;19.084;2022-12-15T16:51:58;-2.28;99.75
68109;SHT30;54893;49.864;19.084;2022-12-15T16:56:58;-2.25;99.70
68109;SHT30;54893;49.864;19.084;2022-12-15T17:01:59;-2.21;99.48
68109;SHT30;54893;49.864;19.084;2022-12-15T17:07:00;-2.22;99.32
68109;SHT30;54893;49.864;19.084;2022-12-15T17:12:00;-2.21;99.06
68109;SHT30;54893;49.864;19.084;2022-12-15T17:17:01;-2.32;99.88
68109;SHT30;54893;49.864;19.084;2022-12-15T17:22:01;-2.28;99.65
68109;SHT30;54893;49.864;19.084;2022-12-15T17:27:02;-2.31;99.60
68109;SHT30;54893;49.864;19.084;2022-12-15T17:32:04;-2.27;99.72
68109;SHT30;54893;49.864;19.084;2022-12-15T17:37:09;-2.27;99.55
68109;SHT30;54893;49.864;19.084;2022-12-15T17:42:18;-2.31;99.53
68109;SHT30;54893;49.864;19.084;2022-12-15T17:47:19;-2.29;99.44
68109;SHT30;54893;49.864;19.084;2022-12-15T17:52:27;-2.24;99.37
68109;SHT30;54893;49.864;19.084;2022-12-15T17:57:28;-2.27;99.66
68109;SHT30;54893;49.864;19.084;2022-12-15T18:02:31;-2.27;99.61
68109;SHT30;54893;49.864;19.084;2022-12-15T18:07:31;-2.24;99.53
68109;SHT30;54893;49.864;19.084;2022-12-15T18:12:32;-2.24;99.63
68109;SHT30;54893;49.864;19.084;2022-12-15T18:17:34;-2.21;99.52
68109;SHT30;54893;49.864;19.084;2022-12-15T18:22:35;-2.18;99.56
68109;SHT30;54893;49.864;19.084;2022-12-15T18:27:35;-2.19;99.40
68109;SHT30;54893;49.864;19.084;2022-12-15T18:32:35;-2.17;99.37
68109;SHT30;54893;49.864;19.084;2022-12-15T18:37:40;-2.17;99.52
68109;SHT30;54893;49.864;19.084;2022-12-15T18:42:41;-2.18;99.57
68109;SHT30;54893;49.864;19.084;2022-12-15T18:47:41;-2.22;99.67
68109;SHT30;54893;49.864;19.084;2022-12-15T18:52:42;-2.27;99.68
68109;SHT30;54893;49.864;19.084;2022-12-15T18:57:42;-2.32;99.99
68109;SHT30;54893;49.864;19.084;2022-12-15T19:02:43;-2.28;99.79
68109;SHT30;54893;49.864;19.084;2022-12-15T19:07:43;-2.27;99.63
68109;SHT30;54893;49.864;19.084;2022-12-15T19:12:44;-2.27;99.44
68109;SHT30;54893;49.864;19.084;2022-12-15T19:17:44;-2.28;99.33
68109;SHT30;54893;49.864;19.084;2022-12-15T19:23:04;-2.35;99.44
68109;SHT30;54893;49.864;19.084;2022-12-15T19:28:08;-2.41;99.55
68109;SHT30;54893;49.864;19.084;2022-12-15T19:33:12;-2.42;99.26
68109;SHT30;54893;49.864;19.084;2022-12-15T19:38:24;-2.44;99.45
68109;SHT30;54893;49.864;19.084;2022-12-15T19:43:26;-2.42;99.44
68109;SHT30;54893;49.864;19.084;2022-12-15T19:48:27;-2.44;99.65
68109;SHT30;54893;49.864;19.084;2022-12-15T19:53:28;-2.39;99.63
68109;SHT30;54893;49.864;19.084;2022-12-15T19:58:35;-2.38;99.54
68109;SHT30;54893;49.864;19.084;2022-12-15T20:03:35;-2.35;99.49
68109;SHT30;54893;49.864;19.084;2022-12-15T20:08:37;-2.29;99.44
68109;SHT30;54893;49.864;19.084;2022-12-15T20:13:39;-2.25;99.34
68109;SHT30;54893;49.864;19.084;2022-12-15T20:18:40;-2.22;99.19
68109;SHT30;54893;49.864;19.084;2022-12-15T20:24:01;-2.22;98.93
68109;SHT30;54893;49.864;19.084;2022-12-15T20:29:06;-2.19;99.02
68109;SHT30;54893;49.864;19.084;2022-12-15T20:34:14;-2.21;99.20
68109;SHT30;54893;49.864;19.084;2022-12-15T20:39:23;-2.18;99.14
68109;SHT30;54893;49.864;19.084;2022-12-15T20:44:28;-2.19;99.10
68109;SHT30;54893;49.864;19.084;2022-12-15T20:49:28;-2.18;99.22
68109;SHT30;54893;49.864;19.084;2022-12-15T20:54:29;-2.17;99.42
68109;SHT30;54893;49.864;19.084;2022-12-15T20:59:29;-2.14;99.59
68109;SHT30;54893;49.864;19.084;2022-12-15T21:04:29;-2.12;99.38
68109;SHT30;54893;49.864;19.084;2022-12-15T21:09:31;-2.12;99.50
68109;SHT30;54893;49.864;19.084;2022-12-15T21:14:32;-2.08;99.58
68109;SHT30;54893;49.864;19.084;2022-12-15T21:19:32;-2.07;99.49
68109;SHT30;54893;49.864;19.084;2022-12-15T21:24:33;-2.07;99.68
68109;SHT30;54893;49.864;19.084;2022-12-15T21:29:34;-2.07;99.66
68109;SHT30;54893;49.864;19.084;2022-12-15T21:34:35;-2.01;99.27
68109;SHT30;54893;49.864;19.084;2022-12-15T21:39:35;-2.02;99.33
68109;SHT30;54893;49.864;19.084;2022-12-15T21:44:36;-2.05;99.43
68109;SHT30;54893;49.864;19.084;2022-12-15T21:49:36;-2.01;99.35
68109;SHT30;54893;49.864;19.084;2022-12-15T21:54:36;-2.02;99.18
68109;SHT30;54893;49.864;19.084;2022-12-15T21:59:37;-1.99;99.12
68109;SHT30;54893;49.864;19.084;2022-12-15T22:04:37;-1.99;99.15
68109;SHT30;54893;49.864;19.084;2022-12-15T22:09:38;-2.01;99.22
68109;SHT30;54893;49.864;19.084;2022-12-15T22:14:38;-2.02;99.33
68109;SHT30;54893;49.864;19.084;2022-12-15T22:19:38;-2.02;99.18
68109;SHT30;54893;49.864;19.084;2022-12-15T22:24:39;-2.01;99.26
68109;SHT30;54893;49.864;19.084;2022-12-15T22:29:39;-1.99;99.06
68109;SHT30;54893;49.864;19.084;2022-12-15T22:34:40;-2.01;98.98
68109;SHT30;54893;49.864;19.084;2022-12-15T22:39:41;-1.99;99.12
68109;SHT30;54893;49.864;19.084;2022-12-15T22:44:41;-2.02;99.44
68109;SHT30;54893;49.864;19.084;2022-12-15T22:49:41;-2.02;99.48
68109;SHT30;54893;49.864;19.084;2022-12-15T22:54:42;-2.05;99.44
68109;SHT30;54893;49.864;19.084;2022-12-15T22:59:50;-2.04;99.54
68109;SHT30;54893;49.864;19.084;2022-12-15T23:04:52;-2.04;99.38
68109;SHT30;54893;49.864;19.084;2022-12-15T23:09:52;-2.11;99.99
68109;SHT30;54893;49.864;19.084;2022-12-15T23:15:13;-2.15;99.80
68109;SHT30;54893;49.864;19.084;2022-12-15T23:20:32;-2.22;99.97
68109;SHT30;54893;49.864;19.084;2022-12-15T23:25:32;-2.29;99.98
68109;SHT30;54893;49.864;19.084;2022-12-15T23:30:33;-2.29;99.85
68109;SHT30;54893;49.864;19.084;2022-12-15T23:35:33;-2.34;99.59
68109;SHT30;54893;49.864;19.084;2022-12-15T23:40:35;-2.35;99.52
68109;SHT30;54893;49.864;19.084;2022-12-15T23:45:35;-2.42;99.59
68109;SHT30;54893;49.864;19.084;2022-12-15T23:50:36;-2.39;99.49
68109;SHT30;54893;49.864;19.084;2022-12-15T23:55:36;-2.39;99.49
